createdAt,value
2017-12-08T00:00:18.973Z,99972.61
2017-12-08T00:02:46.490Z,99968.91
2017-12-08T00:05:14.012Z,99971.58
2017-12-08T00:07:41.532Z,99974.27
2017-12-08T00:10:09.045Z,99975.86
2017-12-08T00:12:36.561Z,99969.95
2017-12-08T00:15:04.079Z,99965.59
2017-12-08T00:17:32.405Z,99967.75
2017-12-08T00:19:59.913Z,99969.84
2017-12-08T00:22:27.434Z,99968.03
2017-12-08T00:24:54.955Z,99966.89
2017-12-08T00:27:22.476Z,99968.80
2017-12-08T00:29:49.998Z,99955.34
2017-12-08T00:32:17.515Z,99958.08
2017-12-08T00:34:45.038Z,99954.19
2017-12-08T00:37:12.562Z,99937.50
2017-12-08T00:39:40.087Z,99930.77
2017-12-08T00:42:07.608Z,99931.64
2017-12-08T00:44:35.135Z,99934.84
2017-12-08T00:47:02.656Z,99937.64
2017-12-08T00:49:30.173Z,99945.31
2017-12-08T00:51:57.689Z,99936.92
2017-12-08T00:54:25.227Z,99927.58
2017-12-08T00:56:52.748Z,99926.35
2017-12-08T00:59:20.266Z,99932.86
2017-12-08T01:01:47.781Z,99925.30
2017-12-08T01:04:15.305Z,99925.34
2017-12-08T01:06:42.833Z,99923.22
2017-12-08T01:09:10.359Z,99919.88
2017-12-08T01:11:37.876Z,99923.76
2017-12-08T01:14:05.400Z,99915.34
2017-12-08T01:16:32.929Z,99927.89
2017-12-08T01:19:00.441Z,99919.48
2017-12-08T01:21:27.952Z,99925.73
2017-12-08T01:23:55.476Z,99920.70
2017-12-08T01:26:23.012Z,99932.25
2017-12-08T01:28:50.533Z,99928.11
2017-12-08T01:31:18.052Z,99923.72
2017-12-08T01:33:45.578Z,99923.11
2017-12-08T01:36:13.107Z,99925.73
2017-12-08T01:38:40.626Z,99915.16
2017-12-08T01:41:08.156Z,99912.42
2017-12-08T01:43:36.589Z,99912.78
2017-12-08T01:46:04.113Z,99916.13
2017-12-08T01:48:31.646Z,99908.75
2017-12-08T01:50:59.160Z,99902.55
2017-12-08T01:53:26.698Z,99918.46
2017-12-08T01:55:54.219Z,99909.14
2017-12-08T01:58:21.741Z,99910.66
2017-12-08T02:00:49.245Z,99903.96
2017-12-08T02:03:16.766Z,99894.96
2017-12-08T02:05:44.286Z,99905.73
2017-12-08T02:08:11.801Z,99902.95
2017-12-08T02:10:39.318Z,99900.00
2017-12-08T02:13:06.846Z,99908.27
2017-12-08T02:15:34.353Z,99911.38
2017-12-08T02:18:01.871Z,99910.76
2017-12-08T02:20:29.387Z,99917.56
2017-12-08T02:22:56.911Z,99915.41
2017-12-08T02:25:24.427Z,99912.41
2017-12-08T02:27:51.952Z,99905.75
2017-12-08T02:30:19.476Z,99899.71
2017-12-08T02:32:46.999Z,99911.55
2017-12-08T02:35:14.524Z,99918.95
2017-12-08T02:37:42.046Z,99919.03
2017-12-08T02:40:09.562Z,99914.17
2017-12-08T02:42:37.083Z,99905.56
2017-12-08T02:45:04.598Z,99914.53
2017-12-08T02:47:32.126Z,99914.75
2017-12-08T02:49:59.640Z,99910.06
2017-12-08T02:52:27.143Z,99893.54
2017-12-08T02:54:54.647Z,99895.09
2017-12-08T02:57:22.162Z,99886.48
2017-12-08T02:59:49.676Z,99888.72
2017-12-08T03:02:17.209Z,99893.42
2017-12-08T03:04:44.712Z,99892.83
2017-12-08T03:07:12.223Z,99898.00
2017-12-08T03:09:39.745Z,99888.60
2017-12-08T03:12:07.248Z,99892.32
2017-12-08T03:14:34.748Z,99893.61
2017-12-08T03:17:02.258Z,99884.57
2017-12-08T03:19:29.773Z,99878.89
2017-12-08T03:21:57.280Z,99894.91
2017-12-08T03:24:24.777Z,99891.16
2017-12-08T03:26:52.301Z,99885.91
2017-12-08T03:29:20.526Z,99896.37
2017-12-08T03:31:48.036Z,99886.52
2017-12-08T03:34:15.544Z,99886.72
2017-12-08T03:36:43.092Z,99866.94
2017-12-08T03:39:10.762Z,99867.13
2017-12-08T03:41:38.270Z,99882.21
2017-12-08T03:44:05.782Z,99881.03
2017-12-08T03:46:33.298Z,99874.30
2017-12-08T03:49:00.845Z,99883.69
2017-12-08T03:51:28.465Z,99885.61
2017-12-08T03:53:56.042Z,99887.91
2017-12-08T03:56:23.602Z,99891.30
2017-12-08T03:58:51.520Z,99894.94
2017-12-08T04:01:19.064Z,99894.39
2017-12-08T04:03:46.652Z,99892.39
2017-12-08T04:06:14.162Z,99885.23
2017-12-08T04:08:41.693Z,99884.61
2017-12-08T04:11:09.218Z,99886.16
2017-12-08T04:13:36.756Z,99890.87
2017-12-08T04:16:04.265Z,99890.91
2017-12-08T04:18:31.778Z,99895.30
2017-12-08T04:20:59.296Z,99902.72
2017-12-08T04:23:26.795Z,99896.20
2017-12-08T04:25:54.322Z,99908.08
2017-12-08T04:28:21.845Z,99908.47
2017-12-08T04:30:49.371Z,99906.78
2017-12-08T04:33:16.892Z,99909.80
2017-12-08T04:35:44.423Z,99907.00
2017-12-08T04:38:11.950Z,99904.91
2017-12-08T04:40:39.473Z,99904.98
2017-12-08T04:43:06.996Z,99908.00
2017-12-08T04:45:34.517Z,99913.61
2017-12-08T04:48:02.050Z,99910.37
2017-12-08T04:50:29.574Z,99913.32
2017-12-08T04:52:57.102Z,99911.67
2017-12-08T04:55:24.625Z,99915.88
2017-12-08T04:57:52.151Z,99919.72
2017-12-08T05:00:19.685Z,99928.31
2017-12-08T05:02:47.198Z,99930.94
2017-12-08T05:05:14.727Z,99922.09
2017-12-08T05:07:42.243Z,99930.07
2017-12-08T05:10:09.747Z,99931.23
2017-12-08T05:12:37.281Z,99928.56
2017-12-08T05:15:05.002Z,99933.68
2017-12-08T05:17:32.528Z,99927.92
2017-12-08T05:20:00.044Z,99923.86
2017-12-08T05:22:27.551Z,99923.33
2017-12-08T05:24:55.064Z,99925.91
2017-12-08T05:27:22.580Z,99923.69
2017-12-08T05:29:50.071Z,99916.45
2017-12-08T05:32:17.581Z,99922.28
2017-12-08T05:34:45.138Z,99924.37
2017-12-08T05:37:12.658Z,99930.20
2017-12-08T05:39:40.198Z,99927.03
2017-12-08T05:42:07.715Z,99921.49
2017-12-08T05:44:35.233Z,99922.06
2017-12-08T05:47:02.732Z,99921.88
2017-12-08T05:49:30.268Z,99928.53
2017-12-08T05:51:57.784Z,99930.07
2017-12-08T05:54:25.319Z,99929.94
2017-12-08T05:56:52.831Z,99936.52
2017-12-08T05:59:20.344Z,99937.70
2017-12-08T06:01:47.847Z,99941.63
2017-12-08T06:04:15.349Z,99942.13
2017-12-08T06:06:42.879Z,99945.40
2017-12-08T06:09:10.394Z,99939.97
2017-12-08T06:11:37.917Z,99937.70
2017-12-08T06:14:05.439Z,99945.59
2017-12-08T06:16:32.953Z,99936.27
2017-12-08T06:19:00.471Z,99951.20
2017-12-08T06:21:27.993Z,99949.27
2017-12-08T06:23:55.496Z,99949.23
2017-12-08T06:26:23.018Z,99947.50
2017-12-08T06:28:50.539Z,99945.59
2017-12-08T06:31:18.080Z,99937.68
2017-12-08T06:33:45.607Z,99949.09
2017-12-08T06:36:13.726Z,99938.41
2017-12-08T06:38:41.235Z,99941.03
2017-12-08T06:41:08.756Z,99940.84
2017-12-08T06:43:36.303Z,99941.28
2017-12-08T06:46:03.826Z,99941.13
2017-12-08T06:48:31.347Z,99950.66
2017-12-08T06:50:58.875Z,99951.69
2017-12-08T06:53:26.429Z,99949.44
2017-12-08T06:55:53.937Z,99958.79
2017-12-08T06:58:21.454Z,99959.42
2017-12-08T07:00:48.976Z,99962.72
2017-12-08T07:03:16.820Z,99963.28
2017-12-08T07:05:44.340Z,99964.15
2017-12-08T07:08:11.857Z,99965.05
2017-12-08T07:10:39.370Z,99975.52
2017-12-08T07:13:06.885Z,99967.57
2017-12-08T07:15:34.401Z,99975.15
2017-12-08T07:18:02.536Z,99978.74
2017-12-08T07:20:30.080Z,99986.78
2017-12-08T07:22:57.600Z,99985.45
2017-12-08T07:25:25.125Z,99991.73
2017-12-08T07:27:52.637Z,99990.17
2017-12-08T07:30:20.174Z,99990.91
2017-12-08T07:32:47.702Z,99989.67
2017-12-08T07:35:15.219Z,99987.50
2017-12-08T07:37:42.749Z,99983.76
2017-12-08T07:40:10.267Z,100000.27
2017-12-08T07:42:38.409Z,99999.47
2017-12-08T07:45:05.925Z,99992.33
2017-12-08T07:47:33.438Z,99992.23
2017-12-08T07:50:00.956Z,99986.38
2017-12-08T07:52:28.472Z,99990.84
2017-12-08T07:54:56.001Z,99993.44
2017-12-08T07:57:23.519Z,99992.53
2017-12-08T07:59:51.799Z,99994.39
2017-12-08T08:02:19.312Z,99996.46
2017-12-08T08:04:46.825Z,100000.49
2017-12-08T08:07:14.343Z,100000.89
2017-12-08T08:09:41.869Z,100002.66
2017-12-08T08:12:09.389Z,100001.72
2017-12-08T08:14:36.900Z,100000.88
2017-12-08T08:17:04.405Z,99995.83
2017-12-08T08:19:31.944Z,99997.66
2017-12-08T08:21:59.473Z,99996.16
2017-12-08T08:24:27.000Z,99995.73
2017-12-08T08:26:54.527Z,100001.02
2017-12-08T08:29:22.082Z,100011.66
2017-12-08T08:31:49.590Z,100014.05
2017-12-08T08:34:17.135Z,100019.34
2017-12-08T08:36:44.665Z,100022.88
2017-12-08T08:39:12.180Z,100021.38
2017-12-08T08:41:39.709Z,100021.95
2017-12-08T08:44:07.238Z,100023.95
2017-12-08T08:46:34.756Z,100026.19
2017-12-08T08:49:02.288Z,100026.06
2017-12-08T08:51:29.818Z,100028.33
2017-12-08T08:53:57.341Z,100027.44
2017-12-08T08:56:24.869Z,100025.49
2017-12-08T08:58:52.390Z,100028.34
2017-12-08T09:01:19.905Z,100022.45
2017-12-08T09:03:47.417Z,100026.14
2017-12-08T09:06:14.937Z,100017.59
2017-12-08T09:08:42.450Z,100027.83
2017-12-08T09:11:09.966Z,100026.70
2017-12-08T09:13:37.509Z,100032.16
2017-12-08T09:16:05.043Z,100033.63
2017-12-08T09:18:33.315Z,100038.66
2017-12-08T09:21:01.830Z,100040.32
2017-12-08T09:23:29.440Z,100038.95
2017-12-08T09:25:56.958Z,100044.86
2017-12-08T09:28:24.478Z,100052.62
2017-12-08T09:30:52.005Z,100041.16
2017-12-08T09:33:19.525Z,100040.46
2017-12-08T09:35:47.101Z,100040.28
2017-12-08T09:38:14.614Z,100039.20
2017-12-08T09:40:42.172Z,100029.41
2017-12-08T09:43:09.685Z,100026.03
2017-12-08T09:45:37.217Z,100027.75
2017-12-08T09:48:04.729Z,100033.44
2017-12-08T09:50:32.240Z,100030.95
2017-12-08T09:52:59.769Z,100042.98
2017-12-08T09:55:27.292Z,100035.14
2017-12-08T09:57:54.822Z,100034.26
2017-12-08T10:00:22.345Z,100032.83
2017-12-08T10:02:50.352Z,100024.82
2017-12-08T10:05:17.873Z,100029.08
2017-12-08T10:07:45.636Z,100029.29
2017-12-08T10:10:13.251Z,100025.66
2017-12-08T10:12:40.770Z,100026.45
2017-12-08T10:15:08.392Z,100020.65
2017-12-08T10:17:36.053Z,100023.16
2017-12-08T10:20:03.616Z,100037.02
2017-12-08T10:22:31.229Z,100023.57
2017-12-08T10:24:58.780Z,100017.45
2017-12-08T10:27:26.313Z,100033.09
2017-12-08T10:29:53.941Z,100033.13
2017-12-08T10:32:21.473Z,100053.03
2017-12-08T10:34:49.025Z,100038.28
2017-12-08T10:37:16.735Z,100047.50
2017-12-08T10:39:44.289Z,100041.20
2017-12-08T10:42:11.840Z,100033.63
2017-12-08T10:44:39.365Z,100034.20
2017-12-08T10:47:06.958Z,100041.98
2017-12-08T10:49:34.514Z,100042.27
2017-12-08T10:52:02.222Z,100040.15
2017-12-08T10:54:29.803Z,100035.18
2017-12-08T10:56:57.346Z,100044.03
2017-12-08T10:59:24.877Z,100032.63
2017-12-08T11:01:52.395Z,100024.60
2017-12-08T11:04:19.957Z,100021.71
2017-12-08T11:06:47.496Z,100015.84
2017-12-08T11:09:15.101Z,100017.29
2017-12-08T11:11:42.888Z,100012.81
2017-12-08T11:14:10.404Z,100023.91
2017-12-08T11:16:37.924Z,100022.62
2017-12-08T11:19:05.459Z,100020.06
2017-12-08T11:21:32.993Z,100016.45
2017-12-08T11:24:00.605Z,100010.20
2017-12-08T11:26:28.210Z,100006.06
2017-12-08T11:28:55.733Z,100007.83
2017-12-08T11:31:23.256Z,100021.11
2017-12-08T11:33:50.866Z,100012.47
2017-12-08T11:36:18.364Z,100017.72
2017-12-08T11:38:45.866Z,100013.77
2017-12-08T11:41:13.378Z,100010.69
2017-12-08T11:43:40.876Z,100015.77
2017-12-08T11:46:08.399Z,100014.30
2017-12-08T11:48:36.017Z,100017.18
2017-12-08T11:51:03.533Z,100020.38
2017-12-08T11:53:31.045Z,100012.39
2017-12-08T11:55:58.572Z,100015.67
2017-12-08T11:58:26.108Z,100013.30
2017-12-08T12:00:53.614Z,100019.95
2017-12-08T12:03:21.124Z,100020.96
2017-12-08T12:05:48.651Z,100022.72
2017-12-08T12:08:16.170Z,100027.48
2017-12-08T12:10:43.675Z,100030.17
2017-12-08T12:13:11.190Z,100030.20
2017-12-08T12:15:39.497Z,100029.73
2017-12-08T12:18:07.014Z,100030.02
2017-12-08T12:20:34.535Z,100038.73
2017-12-08T12:23:02.049Z,100032.22
2017-12-08T12:25:29.575Z,100043.33
2017-12-08T12:27:57.093Z,100034.77
2017-12-08T12:30:24.611Z,100041.30
2017-12-08T12:32:52.127Z,100039.70
2017-12-08T12:35:19.644Z,100044.41
2017-12-08T12:37:47.167Z,100041.27
2017-12-08T12:40:14.687Z,100037.88
2017-12-08T12:42:42.200Z,100033.13
2017-12-08T12:45:09.704Z,100030.95
2017-12-08T12:47:37.220Z,100027.22
2017-12-08T12:50:04.749Z,100031.78
2017-12-08T12:52:32.257Z,100025.62
2017-12-08T12:54:59.817Z,100030.05
2017-12-08T12:57:27.345Z,100020.63
2017-12-08T12:59:54.862Z,100021.90
2017-12-08T13:02:22.372Z,100018.91
2017-12-08T13:04:49.890Z,100023.67
2017-12-08T13:07:17.411Z,100023.30
2017-12-08T13:09:44.960Z,100023.04
2017-12-08T13:12:12.480Z,100027.20
2017-12-08T13:14:39.989Z,100025.64
2017-12-08T13:17:07.489Z,100019.55
2017-12-08T13:19:34.998Z,100021.28
2017-12-08T13:22:02.508Z,100018.85
2017-12-08T13:24:30.025Z,100018.95
2017-12-08T13:26:57.555Z,100023.56
2017-12-08T13:29:25.082Z,100010.56
2017-12-08T13:31:52.621Z,100018.11
2017-12-08T13:34:20.145Z,100019.09
2017-12-08T13:36:47.663Z,100017.63
2017-12-08T13:39:15.184Z,100017.10
2017-12-08T13:41:42.714Z,100011.42
2017-12-08T13:44:10.243Z,100011.58
2017-12-08T13:46:37.767Z,100015.65
2017-12-08T13:49:05.277Z,100013.70
2017-12-08T13:51:32.797Z,100015.25
2017-12-08T13:57:03.824Z,100010.77
2017-12-08T13:59:31.335Z,100009.58
2017-12-08T14:01:58.851Z,100013.17
2017-12-08T14:04:26.370Z,100020.77
2017-12-08T14:06:53.874Z,100023.13
2017-12-08T14:09:21.399Z,100017.54
2017-12-08T14:11:48.924Z,100017.86
2017-12-08T14:14:16.432Z,100011.50
2017-12-08T14:16:43.937Z,100010.02
2017-12-08T14:19:11.453Z,100004.83
2017-12-08T14:21:38.988Z,100013.02
2017-12-08T14:24:06.504Z,100015.44
2017-12-08T14:26:34.021Z,100013.92
2017-12-08T14:29:01.538Z,100014.47
2017-12-08T14:31:29.061Z,100016.97
2017-12-08T14:33:56.581Z,100024.13
2017-12-08T14:36:24.124Z,100025.15
2017-12-08T14:38:51.647Z,100022.20
2017-12-08T14:41:19.159Z,100023.70
2017-12-08T14:43:46.669Z,100010.48
2017-12-08T14:46:14.180Z,100014.53
2017-12-08T14:48:41.706Z,100018.69
2017-12-08T14:51:09.224Z,100020.94
2017-12-08T14:53:36.738Z,100025.91
2017-12-08T14:56:04.259Z,100022.12
2017-12-08T14:58:31.814Z,100018.13
2017-12-08T15:00:59.328Z,100025.34
2017-12-08T15:03:26.833Z,100027.66
2017-12-08T15:05:54.347Z,100021.97
2017-12-08T15:08:21.853Z,100027.91
2017-12-08T15:10:49.360Z,100030.29
2017-12-08T15:13:16.874Z,100029.97
2017-12-08T15:15:45.453Z,100036.73
2017-12-08T15:18:12.955Z,100038.83
2017-12-08T15:20:40.470Z,100044.08
2017-12-08T15:23:08.013Z,100053.37
2017-12-08T15:25:35.526Z,100051.91
2017-12-08T15:28:03.057Z,100059.73
2017-12-08T15:30:30.630Z,100053.94
2017-12-08T15:32:58.142Z,100064.07
2017-12-08T15:35:25.669Z,100063.91
2017-12-08T15:37:53.195Z,100067.91
2017-12-08T15:40:20.717Z,100061.69
2017-12-08T15:42:48.244Z,100055.36
2017-12-08T15:45:15.752Z,100052.16
2017-12-08T15:47:43.308Z,100055.25
2017-12-08T15:50:10.823Z,100082.70
2017-12-08T15:52:38.346Z,100087.03
2017-12-08T15:55:05.872Z,100108.37
2017-12-08T15:57:33.382Z,100102.33
2017-12-08T16:00:00.902Z,100103.56
2017-12-08T16:02:28.409Z,100105.96
2017-12-08T16:04:55.931Z,100093.25
2017-12-08T16:07:23.433Z,100100.97
2017-12-08T16:09:50.962Z,100087.95
2017-12-08T16:12:18.489Z,100089.47
2017-12-08T16:14:46.004Z,100092.23
2017-12-08T16:17:13.513Z,100096.88
2017-12-08T16:19:41.043Z,100099.44
2017-12-08T16:22:08.563Z,100101.91
2017-12-08T16:24:36.073Z,100091.06
2017-12-08T16:27:03.569Z,100090.71
2017-12-08T16:29:31.085Z,100090.36
2017-12-08T16:31:58.589Z,100099.11
2017-12-08T16:34:26.098Z,100094.76
2017-12-08T16:36:53.628Z,100090.12
2017-12-08T16:39:21.155Z,100086.38
2017-12-08T16:41:48.661Z,100078.47
2017-12-08T16:44:17.206Z,100076.86
2017-12-08T16:46:45.435Z,100080.98
2017-12-08T16:49:13.842Z,100083.64
2017-12-08T16:51:41.341Z,100081.20
2017-12-08T16:54:08.857Z,100090.70
2017-12-08T16:56:36.366Z,100087.95
2017-12-08T16:59:03.894Z,100086.13
2017-12-08T17:01:31.426Z,100092.80
2017-12-08T17:03:58.939Z,100090.11
2017-12-08T17:06:26.469Z,100093.05
2017-12-08T17:08:53.968Z,100093.05
2017-12-08T17:11:21.784Z,100091.22
2017-12-08T17:13:49.294Z,100092.24
2017-12-08T17:16:16.809Z,100091.73
2017-12-08T17:18:44.317Z,100087.34
2017-12-08T17:21:11.838Z,100093.09
2017-12-08T17:23:40.142Z,100093.58
2017-12-08T17:26:07.708Z,100091.45
2017-12-08T17:28:35.229Z,100099.80
2017-12-08T17:31:02.726Z,100098.86
2017-12-08T17:33:30.280Z,100096.24
2017-12-08T17:35:57.789Z,100096.58
2017-12-08T17:38:25.309Z,100095.26
2017-12-08T17:40:52.825Z,100098.81
2017-12-08T17:43:20.338Z,100104.80
2017-12-08T17:45:47.849Z,100101.69
2017-12-08T17:48:15.369Z,100109.53
2017-12-08T17:50:42.878Z,100105.08
2017-12-08T17:53:10.387Z,100109.84
2017-12-08T17:55:37.896Z,100108.61
2017-12-08T17:58:05.408Z,100115.55
2017-12-08T18:00:32.919Z,100104.50
2017-12-08T18:03:00.438Z,100105.53
2017-12-08T18:05:27.958Z,100099.07
2017-12-08T18:07:55.470Z,100104.30
2017-12-08T18:10:23.000Z,100102.16
2017-12-08T18:12:50.509Z,100111.22
2017-12-08T18:15:18.017Z,100104.08
2017-12-08T18:17:45.543Z,100110.41
2017-12-08T18:20:13.055Z,100110.34
2017-12-08T18:22:41.280Z,100109.87
2017-12-08T18:25:08.793Z,100113.86
2017-12-08T18:27:36.298Z,100118.37
2017-12-08T18:30:04.081Z,100118.29
2017-12-08T18:32:31.591Z,100118.83
2017-12-08T18:34:59.113Z,100119.69
2017-12-08T18:37:26.622Z,100120.99
2017-12-08T18:39:54.134Z,100125.23
2017-12-08T18:42:21.646Z,100127.32
2017-12-08T18:44:49.161Z,100126.12
2017-12-08T18:47:17.125Z,100126.56
2017-12-08T18:49:44.637Z,100129.73
2017-12-08T18:52:12.153Z,100132.67
2017-12-08T18:54:40.007Z,100133.59
2017-12-08T18:57:07.523Z,100127.72
2017-12-08T18:59:35.032Z,100122.14
2017-12-08T19:02:02.555Z,100128.19
2017-12-08T19:04:30.074Z,100127.65
2017-12-08T19:06:57.575Z,100129.59
2017-12-08T19:09:25.091Z,100126.38
2017-12-08T19:11:52.618Z,100133.86
2017-12-08T19:14:20.174Z,100140.05
2017-12-08T19:16:47.712Z,100137.27
2017-12-08T19:19:15.233Z,100139.02
2017-12-08T19:21:42.739Z,100140.89
2017-12-08T19:24:10.243Z,100146.56
2017-12-08T19:26:38.732Z,100154.63
2017-12-08T19:29:06.268Z,100162.56
2017-12-08T19:31:33.796Z,100154.29
2017-12-08T19:34:01.344Z,100158.77
2017-12-08T19:36:28.870Z,100157.83
2017-12-08T19:38:56.497Z,100166.96
2017-12-08T19:41:24.022Z,100168.88
2017-12-08T19:43:51.551Z,100169.20
2017-12-08T19:46:19.166Z,100166.48
2017-12-08T19:48:46.732Z,100182.28
2017-12-08T19:51:14.602Z,100182.80
2017-12-08T19:53:42.117Z,100183.67
2017-12-08T19:56:09.630Z,100179.29
2017-12-08T19:58:37.149Z,100195.60
2017-12-08T20:01:04.664Z,100192.51
2017-12-08T20:03:32.197Z,100200.80
2017-12-08T20:05:59.804Z,100198.59
2017-12-08T20:08:27.317Z,100209.80
2017-12-08T20:10:54.834Z,100201.62
2017-12-08T20:13:22.345Z,100210.70
2017-12-08T20:15:49.864Z,100207.94
2017-12-08T20:18:17.378Z,100203.50
2017-12-08T20:20:45.829Z,100215.05
2017-12-08T20:23:13.345Z,100220.84
2017-12-08T20:25:40.873Z,100222.53
2017-12-08T20:28:08.419Z,100214.59
2017-12-08T20:30:35.942Z,100225.97
2017-12-08T20:33:03.595Z,100229.52
2017-12-08T20:35:31.115Z,100219.81
2017-12-08T20:38:02.392Z,100227.66
2017-12-08T20:40:29.921Z,100227.70
2017-12-08T20:42:58.382Z,100237.25
2017-12-08T20:45:27.923Z,100234.72
2017-12-08T20:47:55.440Z,100234.29
2017-12-08T20:50:24.273Z,100241.05
2017-12-08T20:52:51.790Z,100230.03
2017-12-08T20:55:19.313Z,100245.83
2017-12-08T20:57:46.822Z,100243.64
2017-12-08T21:00:14.343Z,100248.50
2017-12-08T21:02:41.860Z,100245.03
2017-12-08T21:05:09.411Z,100247.54
2017-12-08T21:07:36.945Z,100252.88
2017-12-08T21:10:04.499Z,100257.81
2017-12-08T21:12:32.008Z,100250.67
2017-12-08T21:14:59.540Z,100250.55
2017-12-08T21:17:27.045Z,100259.88
2017-12-08T21:19:54.998Z,100262.03
2017-12-08T21:22:22.534Z,100257.63
2017-12-08T21:24:50.080Z,100256.72
2017-12-08T21:27:17.612Z,100254.42
2017-12-08T21:29:45.124Z,100263.77
2017-12-08T22:51:09.692Z,100278.55
2017-12-08T22:53:38.691Z,100280.79
2017-12-08T22:56:06.221Z,100281.23
2017-12-08T22:58:33.741Z,100281.72
2017-12-08T23:01:01.257Z,100285.30
2017-12-08T23:03:28.807Z,100286.20
2017-12-08T23:05:57.779Z,100286.20
2017-12-08T23:08:25.293Z,100281.41
2017-12-08T23:10:52.805Z,100281.47
2017-12-08T23:13:21.380Z,100283.69
2017-12-08T23:15:49.515Z,100280.59
2017-12-08T23:18:17.045Z,100281.55
2017-12-08T23:20:44.638Z,100285.59
2017-12-08T23:23:12.181Z,100282.50
2017-12-08T23:25:39.802Z,100280.81
2017-12-08T23:28:10.179Z,100273.75
2017-12-08T23:30:37.704Z,100275.05
2017-12-08T23:33:05.705Z,100274.69
2017-12-08T23:35:33.921Z,100279.09
2017-12-08T23:38:01.446Z,100281.30
2017-12-08T23:40:28.981Z,100280.48
2017-12-08T23:42:56.504Z,100292.39
2017-12-08T23:45:24.324Z,100295.48
2017-12-08T23:47:52.660Z,100292.02
2017-12-08T23:50:20.185Z,100289.86
2017-12-08T23:52:48.257Z,100286.82
2017-12-08T23:55:15.784Z,100286.79
2017-12-08T23:57:43.304Z,100285.97
